Winchester, VA

10:28 AM EST on January 22, 2017 (GMT -0500)
Winchester Regional | | Change Station
Active Advisory: Small Craft Advisory

Elev 725 ft 39.14 °N, 78.14 °W | Updated 13 minutes ago

Overcast
Overcast
45 °F
Feels Like 45 °F
N
0
Wind Variable Wind from North

Today
High -- | Low -- °F
--% Chance of Precip.
Yesterday
High -- | Low -- °F
Precip. -- in
Pressure 29.73 in
Visibility 5.0 miles
Clouds Overcast 600 ft
Dew Point 43 °F
Humidity 93%
Rainfall 0.01 in
Snow Depth Not available.
7:26 AM 5:22 PM
Waning Crescent, 25% visible
METAR KOKV 221515Z AUTO 00000KT 5SM BR OVC006 07/06 A2973 RMK AO2
Pressure 29.73 in
Visibility 5.0 miles
Clouds Overcast 600 ft
Dew Point 43 °F
Humidity 93%
Rainfall 0.01 in
Snow Depth Not available.
7:26 AM 5:22 PM
Waning Crescent, 25% visible
METAR KOKV 221515Z AUTO 00000KT 5SM BR OVC006 07/06 A2973 RMK AO2

Get Your Daily Forecast Email!

Thanks for signing up!

Be on the lookout for a verification email in your inbox.

You'll start receiving the daily forecast at 8 AM.

×

10-Day Weather Forecast

Almanac

Astronomy

Jan. 22, 2017 Rise Set
Actual Time
Civil Twilight
Nautical Twilight
Astronomical Twilight
Moon
Length of Visible Light
Length of Day
Tomorrow will be .
, % of the Moon is Illuminated

Today's Extremes

State Highs State Lows

Community

WunderPhotos

Upload Photos

1,962,540 photos uploaded!

WunderBlog® & News

Nearby

Air Quality

  Air Quality AQ Index Pollutant
Not available.

Snow Depth

Station Depth Elevation

Earthquake Activity

City Distance Mag. Time & Date
Minimum magnitude displayed is 2.5.

Coastal Water Temperatures

Place Temperature

Stations

Nearby Weather Stations

Station Location Temp. Windchill Dew Point Humidity Wind Precip. Elev Updated Type
                   

Watches & Warnings

Small Craft Advisory
Issued: 3:18 AM EST Jan. 22, 2017 – National Weather Service

... Small Craft Advisory remains in effect from 6 PM this evening
to 1 PM EST Monday...

* winds... 18 to 33 knots within the Small Craft Advisory.

Precautionary/preparedness actions...

A Small Craft Advisory means winds of 18 to 33 knots are imminent
or occurring. Boaters operating smaller vessels should avoid
navigating in these conditions.